Time;durP1;ratioP1;P1;durP2;ratioP2;P2;SDS_P1;SDS_P2;PMS_P1;PMS_P2;Temp;Humidity;BMP_temperature;BMP_pressure;BME280_temperature;BME280_humidity;BME280_pressure;Samples;Min_cycle;Max_cycle;Signal;HPM_P1;HPM_P2
2022/11/25 00:01:57;;;;;;;7.90;1.73;;;8.10;99.90;;;;;;5058587;28;20457;-85
2022/11/25 00:04:24;;;;;;;17.00;3.30;;;8.10;99.90;;;;;;5056212;28;20454;-84
2022/11/25 00:06:51;;;;;;;5.00;1.87;;;8.20;99.90;;;;;;5056036;28;20469;-84
2022/11/25 00:09:17;;;;;;;8.93;1.90;;;8.30;99.90;;;;;;5055520;28;20449;-85
2022/11/25 00:11:44;;;;;;;7.90;2.17;;;8.40;99.90;;;;;;5070120;28;20975;-83
2022/11/25 00:14:14;;;;;;;7.70;1.90;;;8.50;99.90;;;;;;5080265;28;20447;-84
2022/11/25 00:16:43;;;;;;;6.30;1.93;;;8.50;99.90;;;;;;5078236;28;20490;-83
2022/11/25 00:19:10;;;;;;;8.00;1.90;;;8.50;99.90;;;;;;5076270;28;20484;-83
2022/11/25 00:21:37;;;;;;;7.97;2.10;;;8.60;99.90;;;;;;5079442;28;20844;-84
2022/11/25 00:24:06;;;;;;;17.50;2.90;;;8.60;99.90;;;;;;5080956;28;20451;-84
2022/11/25 00:26:34;;;;;;;5.93;2.50;;;8.70;99.90;;;;;;5072183;28;20525;-84
2022/11/25 00:29:04;;;;;;;6.07;1.90;;;8.70;99.90;;;;;;5072974;28;20860;-82
2022/11/25 00:31:34;;;;;;;7.40;2.60;;;8.80;99.90;;;;;;5074203;28;20545;-83
2022/11/25 00:34:01;;;;;;;7.20;2.33;;;8.80;99.90;;;;;;5061673;28;20456;-83
2022/11/25 00:36:30;;;;;;;10.67;2.90;;;8.70;99.90;;;;;;5088680;28;20490;-83
2022/11/25 00:38:59;;;;;;;8.77;2.17;;;8.80;99.90;;;;;;5094298;28;20547;-83
2022/11/25 00:46:59;;;;;;;12.30;3.47;;;8.70;99.90;;;;;;5066667;28;20477;-83
2022/11/25 00:49:27;;;;;;;5.20;2.00;;;8.80;99.90;;;;;;5067539;28;20472;-83
2022/11/25 00:51:53;;;;;;;6.57;2.80;;;8.80;99.90;;;;;;5083197;28;20482;-84
2022/11/25 00:54:20;;;;;;;7.40;2.57;;;8.70;99.90;;;;;;5080773;28;20472;-84
2022/11/25 00:56:47;;;;;;;6.50;2.30;;;8.80;99.90;;;;;;5075184;28;20572;-83
2022/11/25 00:59:14;;;;;;;11.60;2.43;;;8.80;99.90;;;;;;5077236;28;20457;-85
2022/11/25 01:01:41;;;;;;;9.60;2.93;;;8.80;99.90;;;;;;5082292;28;20545;-84
2022/11/25 01:04:09;;;;;;;9.13;2.70;;;8.70;99.90;;;;;;5082875;28;20520;-85
2022/11/25 01:06:37;;;;;;;7.27;2.60;;;8.70;99.90;;;;;;5080488;28;20464;-84
2022/11/25 01:09:05;;;;;;;7.53;2.70;;;8.70;99.90;;;;;;5066421;28;20458;-84
2022/11/25 01:11:32;;;;;;;9.10;2.83;;;8.60;99.90;;;;;;5066285;28;20513;-82
2022/11/25 01:13:59;;;;;;;8.20;2.47;;;8.60;99.90;;;;;;5080230;28;20475;-84
2022/11/25 01:16:26;;;;;;;8.63;2.70;;;8.60;99.90;;;;;;5074941;28;20492;-84
2022/11/25 01:18:53;;;;;;;7.60;2.10;;;8.60;99.90;;;;;;5059315;28;20551;-84
2022/11/25 01:21:23;;;;;;;11.90;3.10;;;8.50;99.90;;;;;;5060642;28;20926;-84
2022/11/25 01:23:51;;;;;;;5.73;1.93;;;8.60;99.90;;;;;;5059139;28;20458;-83
2022/11/25 01:26:20;;;;;;;9.93;2.10;;;8.60;99.90;;;;;;5061194;28;20497;-83
2022/11/25 01:28:48;;;;;;;7.63;2.13;;;8.50;99.90;;;;;;5059581;28;20545;-83
2022/11/25 01:31:17;;;;;;;9.33;2.30;;;8.50;99.90;;;;;;5061022;28;20507;-84
2022/11/25 01:33:44;;;;;;;12.93;2.83;;;8.50;99.90;;;;;;5079472;28;20453;-84
2022/11/25 01:36:13;;;;;;;3.80;1.80;;;8.50;99.90;;;;;;5071231;28;20502;-84
2022/11/25 01:38:41;;;;;;;10.23;2.57;;;8.50;99.90;;;;;;5075383;28;20553;-84
2022/11/25 01:41:10;;;;;;;8.37;2.17;;;8.60;99.90;;;;;;5068930;28;20449;-84
2022/11/25 01:43:37;;;;;;;7.73;2.10;;;8.60;99.90;;;;;;5058081;28;20854;-85
2022/11/25 01:46:09;;;;;;;7.70;2.53;;;8.60;99.90;;;;;;5062179;28;20481;-84
2022/11/25 01:48:40;;;;;;;8.97;2.00;;;8.60;99.90;;;;;;5061355;28;20523;-82
2022/11/25 01:51:18;;;;;;;9.73;3.03;;;8.60;99.90;;;;;;5062063;28;20443;-83
2022/11/25 01:53:46;;;;;;;10.07;3.27;;;8.60;99.90;;;;;;5078689;28;20823;-84
2022/11/25 01:56:13;;;;;;;9.73;1.97;;;8.60;99.90;;;;;;5072298;28;21019;-83
2022/11/25 01:58:41;;;;;;;13.57;2.70;;;8.60;99.90;;;;;;5058392;28;20986;-84
2022/11/25 02:01:08;;;;;;;7.63;2.23;;;8.60;99.90;;;;;;5061175;28;20884;-84
2022/11/25 02:03:40;;;;;;;9.47;3.07;;;8.60;99.90;;;;;;5075097;28;20467;-83
2022/11/25 02:06:13;;;;;;;8.37;1.80;;;8.50;99.90;;;;;;5067445;28;20473;-84
2022/11/25 02:08:41;;;;;;;9.83;2.70;;;8.50;99.90;;;;;;5062948;28;20483;-83
2022/11/25 02:11:10;;;;;;;6.67;2.00;;;8.60;99.90;;;;;;5058094;28;20462;-84
2022/11/25 02:13:37;;;;;;;8.13;2.70;;;8.60;99.90;;;;;;5068905;28;20549;-83
2022/11/25 02:16:05;;;;;;;6.83;2.30;;;8.60;99.90;;;;;;5080412;28;20471;-83
2022/11/25 02:18:32;;;;;;;8.33;2.90;;;8.60;99.90;;;;;;5074561;28;21015;-84
2022/11/25 02:20:59;;;;;;;12.10;4.67;;;8.70;99.90;;;;;;5068093;28;20473;-84
2022/11/25 02:23:33;;;;;;;6.77;2.10;;;8.70;99.90;;;;;;5064888;28;20452;-84
2022/11/25 02:26:01;;;;;;;7.77;2.20;;;8.70;99.90;;;;;;5058437;28;20474;-83
2022/11/25 02:28:31;;;;;;;7.67;2.13;;;8.80;99.90;;;;;;5059239;28;20449;-84
2022/11/25 02:30:58;;;;;;;10.23;2.60;;;8.80;99.90;;;;;;5059383;28;20454;-85
2022/11/25 02:33:26;;;;;;;9.60;2.73;;;8.80;99.90;;;;;;5072642;28;20560;-84
2022/11/25 02:35:56;;;;;;;6.70;1.50;;;8.80;99.90;;;;;;5079886;28;20518;-83
2022/11/25 02:38:25;;;;;;;11.47;2.70;;;8.80;99.90;;;;;;5068047;28;20575;-83
2022/11/25 02:40:56;;;;;;;13.00;2.77;;;8.80;99.90;;;;;;5060561;28;20460;-84
2022/11/25 02:43:24;;;;;;;4.33;2.40;;;8.80;99.90;;;;;;5072049;28;20891;-83
2022/11/25 02:45:56;;;;;;;6.43;2.30;;;8.80;99.90;;;;;;5080915;28;20459;-82
2022/11/25 02:48:24;;;;;;;6.87;2.47;;;8.80;99.90;;;;;;5067501;28;20529;-84
2022/11/25 02:50:51;;;;;;;5.87;2.23;;;8.80;99.90;;;;;;5060543;28;20496;-84
2022/11/25 02:53:18;;;;;;;6.43;1.90;;;8.90;99.90;;;;;;5076676;28;20463;-85
2022/11/25 02:55:48;;;;;;;11.30;2.60;;;8.90;99.90;;;;;;5080479;28;20512;-84
2022/11/25 02:58:16;;;;;;;6.60;2.80;;;8.90;99.90;;;;;;5078391;28;20480;-84
2022/11/25 03:00:44;;;;;;;7.20;2.30;;;9.00;99.90;;;;;;5081126;28;20540;-85
2022/11/25 03:03:12;;;;;;;9.87;2.27;;;9.00;99.90;;;;;;5063206;28;20538;-84
2022/11/25 03:05:39;;;;;;;12.43;2.73;;;9.10;99.90;;;;;;5060891;28;20454;-83
2022/11/25 03:08:06;;;;;;;9.20;3.27;;;9.10;99.90;;;;;;5069802;28;21065;-84
2022/11/25 03:10:34;;;;;;;9.83;2.80;;;9.20;99.90;;;;;;5078425;28;20457;-84
2022/11/25 03:13:01;;;;;;;10.13;2.10;;;9.30;99.90;;;;;;5064443;28;20459;-83
2022/11/25 03:15:28;;;;;;;7.70;2.60;;;9.30;99.90;;;;;;5058804;28;20951;-84
2022/11/25 03:17:57;;;;;;;7.17;2.70;;;9.30;99.90;;;;;;5063547;28;20491;-84
2022/11/25 03:20:24;;;;;;;7.30;1.97;;;9.30;99.90;;;;;;5064067;28;20451;-82
2022/11/25 03:22:51;;;;;;;5.63;2.07;;;9.30;99.90;;;;;;5080173;28;20445;-83
2022/11/25 03:25:18;;;;;;;6.97;2.13;;;9.40;99.90;;;;;;5075480;28;20454;-83
2022/11/25 03:27:45;;;;;;;5.27;2.13;;;9.40;99.90;;;;;;5064574;28;20465;-83
2022/11/25 03:30:17;;;;;;;7.87;3.20;;;9.50;99.90;;;;;;5077276;28;21053;-83
2022/11/25 03:32:44;;;;;;;6.87;2.37;;;9.40;99.90;;;;;;5079897;28;20456;-84
2022/11/25 03:35:13;;;;;;;7.00;2.20;;;9.40;99.90;;;;;;5079031;28;20521;-83
2022/11/25 03:37:40;;;;;;;5.53;1.70;;;9.40;99.90;;;;;;5061918;28;20486;-84
2022/11/25 03:40:09;;;;;;;9.53;2.50;;;9.40;99.90;;;;;;5062311;28;20460;-83
2022/11/25 03:42:36;;;;;;;8.40;2.77;;;9.40;99.90;;;;;;5081894;28;20452;-81
2022/11/25 03:45:03;;;;;;;5.60;2.23;;;9.40;99.90;;;;;;5081991;28;20456;-83
2022/11/25 03:47:30;;;;;;;8.63;2.47;;;9.50;99.90;;;;;;5064618;28;20483;-84
2022/11/25 03:49:57;;;;;;;14.57;3.20;;;9.40;99.90;;;;;;5069080;28;20513;-82
2022/11/25 03:52:25;;;;;;;9.23;2.33;;;9.40;99.90;;;;;;5059849;28;20538;-81
2022/11/25 03:54:52;;;;;;;6.17;2.20;;;9.40;99.90;;;;;;5059997;28;20451;-81
2022/11/25 03:57:18;;;;;;;7.33;2.53;;;9.40;99.90;;;;;;5078090;28;20487;-83
2022/11/25 03:59:45;;;;;;;5.27;2.30;;;9.40;99.90;;;;;;5064591;28;20896;-82
2022/11/25 04:02:13;;;;;;;4.93;2.63;;;9.50;99.90;;;;;;5078703;28;20539;-83
2022/11/25 04:04:39;;;;;;;6.37;1.67;;;9.50;99.90;;;;;;5077806;28;20460;-83
2022/11/25 04:07:06;;;;;;;6.47;1.90;;;9.50;99.90;;;;;;5057914;28;20470;-84
2022/11/25 04:09:35;;;;;;;6.83;1.90;;;9.50;99.90;;;;;;5079116;28;20462;-84
2022/11/25 04:14:54;;;;;;;6.60;2.17;;;9.60;99.90;;;;;;5042719;28;20438;-84
2022/11/25 04:17:21;;;;;;;7.37;3.70;;;9.60;99.90;;;;;;5064097;28;20484;-83
2022/11/25 04:19:48;;;;;;;7.93;1.77;;;9.60;99.90;;;;;;5071021;28;20481;-85
2022/11/25 04:22:15;;;;;;;12.43;2.60;;;9.70;99.90;;;;;;5081076;28;20465;-85
2022/11/25 04:24:43;;;;;;;9.93;2.13;;;9.60;99.90;;;;;;5075518;28;20542;-82
2022/11/25 04:27:09;;;;;;;7.57;2.60;;;9.70;99.90;;;;;;5061152;28;20516;-85
2022/11/25 04:29:36;;;;;;;8.17;2.27;;;9.70;99.90;;;;;;5076552;28;20526;-85
2022/11/25 04:32:03;;;;;;;7.93;2.03;;;9.70;99.90;;;;;;5079928;28;20454;-83
2022/11/25 04:34:30;;;;;;;8.10;2.43;;;9.80;99.90;;;;;;5078268;28;20450;-85
2022/11/25 04:36:57;;;;;;;8.00;2.67;;;9.80;99.90;;;;;;5060550;28;20983;-84
2022/11/25 04:39:24;;;;;;;6.80;2.23;;;9.80;99.90;;;;;;5075412;28;20457;-84
2022/11/25 04:42:30;;;;;;;6.27;2.63;;;9.80;99.90;;;;;;5060173;28;20833;-86
2022/11/25 04:44:39;;;;;;;8.47;2.30;;;9.90;99.90;;;;;;5065094;28;20496;-86
2022/11/25 04:47:06;;;;;;;7.33;2.03;;;9.90;99.90;;;;;;5087439;22;20490;-81
2022/11/25 04:49:32;;;;;;;7.03;1.90;;;9.90;99.90;;;;;;5043209;28;20502;-79
2022/11/25 04:51:59;;;;;;;7.43;2.27;;;9.90;99.90;;;;;;5041071;28;20462;-80
2022/11/25 04:54:26;;;;;;;6.53;1.90;;;9.90;99.90;;;;;;5037960;28;20534;-81
2022/11/25 04:56:54;;;;;;;6.13;2.13;;;9.80;99.90;;;;;;5037997;28;20474;-81
2022/11/25 04:59:39;;;;;;;12.63;2.57;;;9.80;99.90;;;;;;5058229;28;20496;-82
2022/11/25 05:02:06;;;;;;;5.67;1.70;;;9.80;99.90;;;;;;5057803;28;20458;-81
2022/11/25 05:04:32;;;;;;;7.57;2.03;;;9.80;99.90;;;;;;5047600;28;20458;-81
2022/11/25 05:06:59;;;;;;;7.93;2.47;;;9.80;99.90;;;;;;5046006;28;20468;-81
2022/11/25 05:09:29;;;;;;;13.03;2.67;;;9.80;99.90;;;;;;5045807;28;20973;-80
2022/11/25 05:11:57;;;;;;;8.93;2.60;;;9.80;99.90;;;;;;5044800;28;20459;-81
2022/11/25 05:14:24;;;;;;;6.00;2.20;;;9.80;99.90;;;;;;5044849;28;20460;-82
2022/11/25 05:16:51;;;;;;;8.43;2.57;;;9.80;99.90;;;;;;5058646;28;20871;-79
2022/11/25 05:19:18;;;;;;;11.33;2.60;;;9.70;99.90;;;;;;5061076;28;20497;-82
2022/11/25 05:21:45;;;;;;;16.17;2.60;;;9.60;99.90;;;;;;5061800;28;20453;-80
2022/11/25 05:24:11;;;;;;;9.10;2.40;;;9.70;99.90;;;;;;5061938;28;20534;-81
2022/11/25 05:26:38;;;;;;;6.00;2.37;;;9.70;99.90;;;;;;5057398;28;20450;-81
2022/11/25 05:29:06;;;;;;;12.20;2.40;;;9.70;99.90;;;;;;5057815;28;20455;-81
2022/11/25 05:31:33;;;;;;;13.80;2.83;;;9.80;99.90;;;;;;5047984;28;20518;-80
2022/11/25 05:34:01;;;;;;;10.37;2.60;;;9.70;99.90;;;;;;5041077;28;20463;-82
2022/11/25 05:36:28;;;;;;;5.90;2.10;;;9.70;99.90;;;;;;5063035;28;20467;-81
2022/11/25 05:38:56;;;;;;;6.70;2.20;;;9.70;99.90;;;;;;5063255;28;20552;-82
2022/11/25 05:41:23;;;;;;;3.30;1.73;;;9.60;99.90;;;;;;5071018;28;20474;-81
2022/11/25 05:43:52;;;;;;;12.00;2.17;;;9.70;99.90;;;;;;5058333;28;20431;-82
2022/11/25 05:46:20;;;;;;;6.00;1.80;;;9.70;99.90;;;;;;5065628;28;20450;-82
2022/11/25 05:48:47;;;;;;;8.13;2.50;;;9.60;99.90;;;;;;5062578;28;20543;-81
2022/11/25 05:51:14;;;;;;;10.10;2.60;;;9.60;99.90;;;;;;5051446;28;20459;-83
2022/11/25 05:53:41;;;;;;;8.83;2.73;;;9.60;99.90;;;;;;5041972;28;20486;-82
2022/11/25 05:56:09;;;;;;;8.27;2.90;;;9.50;99.90;;;;;;5059266;28;20451;-83
2022/11/25 05:58:45;;;;;;;6.50;2.77;;;9.40;99.90;;;;;;5052366;28;20499;-81
2022/11/25 06:01:15;;;;;;;8.13;2.80;;;9.40;99.90;;;;;;5050599;28;20450;-82
2022/11/25 06:03:43;;;;;;;8.60;2.60;;;9.40;99.90;;;;;;5054416;28;20459;-84
2022/11/25 06:06:21;;;;;;;7.73;3.07;;;9.40;99.90;;;;;;5051413;28;20864;-85
2022/11/25 06:08:48;;;;;;;9.13;2.87;;;9.40;99.90;;;;;;5045010;28;20486;-84
2022/11/25 06:11:17;;;;;;;5.23;2.77;;;9.40;99.90;;;;;;5051705;28;20476;-84
2022/11/25 06:13:44;;;;;;;7.97;2.90;;;9.40;99.90;;;;;;5051193;28;20533;-85
2022/11/25 06:16:13;;;;;;;8.20;2.27;;;9.40;99.90;;;;;;5050336;28;20431;-85
2022/11/25 06:18:41;;;;;;;6.67;2.83;;;9.40;99.90;;;;;;5051608;28;20491;-85
2022/11/25 06:21:12;;;;;;;7.93;2.87;;;9.40;99.90;;;;;;5051749;28;20489;-85
2022/11/25 06:23:40;;;;;;;11.13;3.50;;;9.40;99.90;;;;;;5051747;28;20452;-83
2022/11/25 06:26:10;;;;;;;14.10;3.30;;;9.20;99.90;;;;;;5052844;28;20465;-85
2022/11/25 06:28:37;;;;;;;13.80;3.70;;;9.30;99.90;;;;;;5071510;28;20458;-85
2022/11/25 06:31:08;;;;;;;8.23;3.17;;;9.20;99.90;;;;;;5070478;28;20437;-85
2022/11/25 06:33:36;;;;;;;5.37;2.07;;;9.20;99.90;;;;;;5071551;28;20461;-85
2022/11/25 06:36:07;;;;;;;11.63;2.70;;;9.20;99.90;;;;;;5070266;28;20479;-85
2022/11/25 06:38:36;;;;;;;5.43;2.33;;;9.20;99.90;;;;;;5034188;28;20480;-86
2022/11/25 06:41:04;;;;;;;6.07;3.03;;;9.30;99.90;;;;;;5036666;28;20468;-85
2022/11/25 06:43:33;;;;;;;10.27;3.40;;;9.30;99.90;;;;;;5036729;28;20474;-84
2022/11/25 06:46:06;;;;;;;11.23;3.30;;;9.30;99.90;;;;;;5033786;28;20478;-85
2022/11/25 06:48:33;;;;;;;6.10;2.90;;;9.30;99.90;;;;;;5022980;28;20482;-83
2022/11/25 06:51:13;;;;;;;10.70;3.00;;;9.20;99.90;;;;;;5031869;28;20471;-85
2022/11/25 06:54:01;;;;;;;10.77;3.10;;;9.20;99.90;;;;;;5033910;28;20458;-85
2022/11/25 06:56:41;;;;;;;;;;;;;;;;;;;;;
2022/11/25 06:59:08;;;;;;;7.70;3.20;;;9.30;99.90;;;;;;5070246;28;20514;-81
2022/11/25 07:01:40;;;;;;;8.93;2.90;;;9.20;99.90;;;;;;5053560;28;20522;-84
2022/11/25 07:04:07;;;;;;;11.60;3.90;;;9.20;99.90;;;;;;5049504;28;20434;-85
2022/11/25 07:06:35;;;;;;;12.80;3.80;;;9.30;99.90;;;;;;5045029;28;20514;-83
2022/11/25 07:09:04;;;;;;;11.43;3.20;;;9.20;99.90;;;;;;5045549;28;20474;-84
2022/11/25 07:11:37;;;;;;;11.43;3.40;;;9.20;99.90;;;;;;5045404;28;20481;-82
2022/11/25 07:14:06;;;;;;;9.07;3.10;;;9.20;99.90;;;;;;5044797;28;20494;-83
2022/11/25 07:16:33;;;;;;;16.27;3.60;;;9.20;99.90;;;;;;5050752;28;20527;-83
2022/11/25 07:19:01;;;;;;;10.73;3.43;;;9.20;99.90;;;;;;5065428;28;21124;-83
2022/11/25 07:21:30;;;;;;;9.47;3.13;;;9.10;99.90;;;;;;5065951;28;20688;-84
2022/11/25 07:23:59;;;;;;;8.40;3.83;;;9.00;99.90;;;;;;5066684;28;20451;-82
2022/11/25 07:26:29;;;;;;;8.13;3.03;;;9.10;99.90;;;;;;5058378;28;20467;-84
2022/11/25 07:28:59;;;;;;;16.30;4.43;;;9.00;99.90;;;;;;5068922;28;20553;-83
2022/11/25 07:31:29;;;;;;;6.80;3.27;;;9.10;99.90;;;;;;5068548;28;20470;-83
2022/11/25 07:33:57;;;;;;;10.60;5.23;;;9.10;99.90;;;;;;5069162;28;20452;-84
2022/11/25 07:36:24;;;;;;;11.47;3.57;;;9.10;99.90;;;;;;5063106;28;20462;-83
2022/11/25 07:38:51;;;;;;;11.87;3.50;;;9.20;99.90;;;;;;5068941;28;20485;-84
2022/11/25 07:41:30;;;;;;;8.00;3.47;;;9.20;99.90;;;;;;5058786;28;20443;-82
2022/11/25 07:44:00;;;;;;;13.00;3.87;;;9.10;99.90;;;;;;5049039;28;20915;-83
2022/11/25 07:46:33;;;;;;;9.80;3.37;;;9.10;99.90;;;;;;5049007;28;20483;-82
2022/11/25 07:49:02;;;;;;;8.80;3.37;;;9.20;99.90;;;;;;5047837;28;20447;-81
2022/11/25 07:51:31;;;;;;;5.67;3.40;;;9.10;99.90;;;;;;5043444;28;20514;-83
2022/11/25 07:53:59;;;;;;;9.70;4.33;;;9.10;99.90;;;;;;5047998;28;20459;-83
2022/11/25 07:56:28;;;;;;;13.10;4.73;;;9.10;99.90;;;;;;5044835;28;20438;-84
2022/11/25 07:59:09;;;;;;;12.40;4.93;;;9.10;99.90;;;;;;5039446;28;20493;-81
2022/11/25 08:01:36;;;;;;;9.63;4.00;;;9.20;99.90;;;;;;5042556;28;20453;-82
2022/11/25 08:04:03;;;;;;;9.60;4.10;;;9.20;99.90;;;;;;5033863;28;21022;-81
2022/11/25 08:06:30;;;;;;;9.80;2.97;;;9.20;99.90;;;;;;5042390;28;20451;-83
2022/11/25 08:09:01;;;;;;;8.60;3.90;;;9.20;99.90;;;;;;5043764;28;20464;-82
2022/11/25 08:11:31;;;;;;;12.23;3.90;;;9.30;99.90;;;;;;5036956;28;20455;-80
2022/11/25 08:13:59;;;;;;;9.57;3.77;;;9.30;99.90;;;;;;5043277;28;20526;-82
2022/11/25 08:16:37;;;;;;;6.13;3.23;;;9.20;99.90;;;;;;5041495;28;20435;-83
2022/11/25 08:19:05;;;;;;;7.63;3.50;;;9.20;99.90;;;;;;5047137;28;20487;-81
2022/11/25 08:21:33;;;;;;;9.00;3.37;;;9.20;99.90;;;;;;5030400;28;20520;-83
2022/11/25 08:24:01;;;;;;;11.60;5.60;;;9.20;99.90;;;;;;5027751;28;20533;-84
2022/11/25 08:26:37;;;;;;;11.33;3.93;;;9.20;99.90;;;;;;5053113;28;20470;-82
2022/11/25 08:29:05;;;;;;;10.40;3.20;;;9.20;99.90;;;;;;5050579;28;20990;-83
2022/11/25 08:31:34;;;;;;;7.67;2.77;;;9.40;99.90;;;;;;5040195;28;20539;-82
2022/11/25 08:34:01;;;;;;;8.43;3.60;;;9.40;99.90;;;;;;5043900;28;20545;-83
2022/11/25 08:36:29;;;;;;;6.80;3.63;;;9.50;99.90;;;;;;5045155;28;20461;-82
2022/11/25 08:38:58;;;;;;;9.73;3.80;;;9.60;99.90;;;;;;5042449;28;20537;-81
2022/11/25 08:41:27;;;;;;;11.80;3.20;;;9.60;99.90;;;;;;5039928;28;20486;-82
2022/11/25 08:43:56;;;;;;;11.37;3.30;;;9.70;99.90;;;;;;5030473;28;20460;-82
2022/11/25 08:46:25;;;;;;;7.63;3.33;;;9.70;99.90;;;;;;5037290;28;20519;-81
2022/11/25 08:48:55;;;;;;;5.40;2.90;;;9.80;99.90;;;;;;5028324;28;20480;-81
2022/11/25 08:51:24;;;;;;;9.03;3.10;;;9.80;99.90;;;;;;5040130;28;20511;-82
2022/11/25 08:53:51;;;;;;;8.60;2.90;;;9.80;99.90;;;;;;5057014;28;20573;-82
2022/11/25 08:56:22;;;;;;;8.03;3.10;;;9.70;99.90;;;;;;5038202;28;20469;-82
2022/11/25 08:58:49;;;;;;;9.80;3.03;;;9.60;99.90;;;;;;5043136;28;20514;-81
2022/11/25 09:01:19;;;;;;;3.87;2.70;;;9.60;99.90;;;;;;5022503;28;20524;-80
2022/11/25 09:04:23;;;;;;;7.30;2.70;;;9.60;99.90;;;;;;5044656;28;20827;-82
2022/11/25 09:06:49;;;;;;;6.60;2.83;;;9.50;99.90;;;;;;5028529;28;20457;-82
2022/11/25 09:09:17;;;;;;;6.77;2.40;;;9.60;99.90;;;;;;5039266;28;20668;-81
2022/11/25 09:11:44;;;;;;;5.40;2.00;;;9.70;99.90;;;;;;5042153;28;20995;-81
2022/11/25 09:14:11;;;;;;;6.47;2.87;;;9.90;99.90;;;;;;5051498;28;20477;-82
2022/11/25 09:16:45;;;;;;;4.10;2.43;;;10.00;99.90;;;;;;5048429;28;20496;-81
2022/11/25 09:19:12;;;;;;;8.63;2.47;;;10.10;99.90;;;;;;5034590;28;20479;-81
2022/11/25 09:21:39;;;;;;;5.73;2.50;;;10.00;99.90;;;;;;5050061;28;20538;-81
2022/11/25 09:24:06;;;;;;;11.27;3.27;;;10.00;99.90;;;;;;5033371;28;20539;-81
2022/11/25 09:26:34;;;;;;;9.97;2.43;;;10.00;99.90;;;;;;5046466;28;20463;-80
2022/11/25 09:29:01;;;;;;;7.80;2.70;;;10.10;99.90;;;;;;5021595;28;20519;-80
2022/11/25 09:31:28;;;;;;;10.80;3.57;;;10.10;99.90;;;;;;5048346;28;20452;-83
2022/11/25 09:33:56;;;;;;;11.27;3.60;;;10.00;99.90;;;;;;5036031;28;20543;-79
2022/11/25 09:36:24;;;;;;;15.47;2.97;;;10.00;99.90;;;;;;5037867;28;20509;-82
2022/11/25 09:38:52;;;;;;;9.40;2.63;;;10.00;99.90;;;;;;5044438;28;21011;-82
2022/11/25 09:47:26;;;;;;;10.93;3.10;;;10.00;99.90;;;;;;5047526;28;20469;-81
2022/11/25 09:50:16;;;;;;;14.03;2.87;;;10.10;99.90;;;;;;5046562;28;20541;-80
2022/11/25 09:52:53;;;;;;;9.10;2.77;;;10.10;99.90;;;;;;5036180;28;20460;-82
2022/11/25 09:55:22;;;;;;;6.90;2.90;;;10.20;99.90;;;;;;5048650;28;20458;-79
2022/11/25 09:58:06;;;;;;;5.23;2.07;;;10.30;99.90;;;;;;5036811;28;20471;-82
2022/11/25 10:00:38;;;;;;;6.93;2.07;;;10.70;99.90;;;;;;5019487;28;20497;-82
2022/11/25 10:03:13;;;;;;;8.53;2.40;;;11.10;99.90;;;;;;5044365;28;20536;-82
2022/11/25 10:05:47;;;;;;;10.53;3.10;;;11.20;99.90;;;;;;5033285;28;20515;-79
2022/11/25 10:08:19;;;;;;;9.17;2.30;;;11.40;99.90;;;;;;5051697;28;20483;-80
2022/11/25 10:10:48;;;;;;;5.40;1.77;;;11.50;99.90;;;;;;5016839;28;20499;-81
2022/11/25 10:13:19;;;;;;;6.87;1.97;;;11.70;99.90;;;;;;5043350;28;20588;-79
2022/11/25 10:15:50;;;;;;;8.50;2.93;;;11.90;99.90;;;;;;5041302;28;20890;-80
2022/11/25 10:18:21;;;;;;;8.50;3.67;;;12.10;99.90;;;;;;5035265;28;20473;-80
2022/11/25 10:20:51;;;;;;;4.80;1.90;;;12.10;99.90;;;;;;5039222;28;20485;-81
2022/11/25 10:23:24;;;;;;;6.90;2.07;;;12.10;99.90;;;;;;5042869;28;20447;-79
2022/11/25 10:25:56;;;;;;;10.10;2.67;;;12.20;99.90;;;;;;5046980;28;20486;-79
2022/11/25 10:28:24;;;;;;;6.57;2.00;;;12.20;99.90;;;;;;5056227;28;20496;-82
2022/11/25 10:30:58;;;;;;;6.70;2.33;;;12.10;99.90;;;;;;5043770;28;20485;-81
2022/11/25 10:33:28;;;;;;;26.20;12.93;;;12.10;99.90;;;;;;5052448;28;20942;-80
2022/11/25 10:36:00;;;;;;;10.37;6.47;;;12.10;99.90;;;;;;5045640;28;20487;-82
2022/11/25 10:38:35;;;;;;;11.83;4.73;;;12.20;99.90;;;;;;5034142;28;20999;-80
2022/11/25 10:41:04;;;;;;;5.00;2.27;;;12.00;99.90;;;;;;5037276;28;21024;-79
2022/11/25 10:43:31;;;;;;;9.20;3.97;;;12.20;99.90;;;;;;5048239;28;20714;-80
2022/11/25 10:46:08;;;;;;;8.77;2.30;;;12.30;99.90;;;;;;5038101;28;21058;-81
2022/11/25 10:48:53;;;;;;;11.70;3.20;;;12.50;99.90;;;;;;5045614;28;20479;-81
2022/11/25 10:51:45;;;;;;;8.43;3.47;;;12.60;99.90;;;;;;5045192;28;20458;-80
2022/11/25 10:54:15;;;;;;;7.50;2.27;;;12.60;99.90;;;;;;5024329;28;20534;-80
2022/11/25 10:56:45;;;;;;;6.53;2.60;;;12.60;99.90;;;;;;5036312;28;20471;-79
2022/11/25 10:59:21;;;;;;;7.17;2.80;;;12.60;99.90;;;;;;5042026;28;20518;-81
2022/11/25 11:01:47;;;;;;;6.40;2.53;;;12.70;99.90;;;;;;5045265;28;20566;-83
2022/11/25 11:04:17;;;;;;;6.43;2.40;;;12.80;99.90;;;;;;5070676;28;20511;-78
2022/11/25 11:06:46;;;;;;;4.40;2.60;;;12.90;99.90;;;;;;5058631;28;20481;-80
2022/11/25 11:09:32;;;;;;;6.03;2.50;;;12.70;99.90;;;;;;5055587;28;20488;-82
2022/11/25 11:12:13;;;;;;;8.77;2.30;;;13.00;99.90;;;;;;5055007;28;20469;-81
2022/11/25 11:14:40;;;;;;;7.90;3.20;;;13.20;99.90;;;;;;5056679;28;20455;-82
2022/11/25 11:17:20;;;;;;;8.30;2.70;;;14.10;99.90;;;;;;5055068;28;20489;-81
2022/11/25 11:20:01;;;;;;;8.80;2.70;;;14.90;99.90;;;;;;5047522;28;20554;-81
2022/11/25 11:22:29;;;;;;;2.10;1.00;;;15.70;99.90;;;;;;5043136;28;20539;-80
2022/11/25 11:25:06;;;;;;;11.83;2.93;;;17.70;99.90;;;;;;5039617;28;20517;-81
2022/11/25 11:27:37;;;;;;;6.70;2.70;;;18.10;99.90;;;;;;5040811;28;20987;-82
2022/11/25 11:30:15;;;;;;;9.00;3.10;;;18.30;99.90;;;;;;5036348;28;20459;-81
2022/11/25 11:32:45;;;;;;;5.97;2.57;;;18.20;99.90;;;;;;5035917;28;20452;-83
2022/11/25 11:35:20;;;;;;;6.77;2.53;;;17.70;99.90;;;;;;5039533;28;20544;-82
2022/11/25 11:37:53;;;;;;;7.30;3.27;;;16.90;99.90;;;;;;5036655;28;20558;-82
2022/11/25 11:40:35;;;;;;;9.77;3.23;;;16.40;99.90;;;;;;5035944;28;20491;-80
2022/11/25 11:43:26;;;;;;;6.67;2.77;;;15.70;99.90;;;;;;5034656;28;20451;-80
2022/11/25 11:46:10;;;;;;;8.37;3.00;;;15.10;99.90;;;;;;5056008;28;20441;-80
2022/11/25 11:48:39;;;;;;;6.40;2.23;;;15.50;99.90;;;;;;5054693;28;20470;-81
2022/11/25 11:51:19;;;;;;;7.77;2.50;;;16.30;99.90;;;;;;5055127;28;20471;-82
2022/11/25 11:53:58;;;;;;;6.70;2.13;;;17.20;99.90;;;;;;5055399;28;20876;-80
2022/11/25 11:56:34;;;;;;;5.70;1.70;;;17.20;99.90;;;;;;5055400;28;20477;-80
2022/11/25 11:59:23;;;;;;;7.97;2.70;;;17.40;99.90;;;;;;5055717;28;20542;-80
2022/11/25 12:02:12;;;;;;;6.37;2.53;;;17.60;99.90;;;;;;5055501;28;20560;-81
2022/11/25 12:04:41;;;;;;;4.93;2.60;;;17.10;99.90;;;;;;5057259;28;20526;-81
2022/11/25 12:07:15;;;;;;;7.73;2.40;;;16.80;99.90;;;;;;5061973;28;20546;-82
2022/11/25 12:09:49;;;;;;;4.80;1.97;;;16.50;99.90;;;;;;5062507;28;21030;-80
2022/11/25 12:12:19;;;;;;;7.20;2.60;;;16.20;99.90;;;;;;5064921;28;20528;-82
2022/11/25 12:14:49;;;;;;;7.60;2.47;;;15.90;99.90;;;;;;5060908;28;20454;-79
2022/11/25 12:17:20;;;;;;;9.13;2.93;;;15.30;99.90;;;;;;5057817;28;20531;-79
2022/11/25 12:19:53;;;;;;;6.97;2.13;;;15.00;99.90;;;;;;5052093;28;20584;-80
2022/11/25 12:22:25;;;;;;;10.27;2.50;;;14.70;99.90;;;;;;5042164;28;20448;-79
2022/11/25 12:25:01;;;;;;;6.03;1.80;;;14.40;99.90;;;;;;5061759;28;20562;-81
2022/11/25 12:27:34;;;;;;;7.90;2.60;;;14.10;99.90;;;;;;5061197;28;20569;-80
2022/11/25 12:30:05;;;;;;;11.27;3.03;;;14.00;99.90;;;;;;5061170;28;20469;-79
2022/11/25 12:32:56;;;;;;;13.80;2.90;;;13.80;99.90;;;;;;5063598;28;20645;-81
2022/11/25 12:35:35;;;;;;;8.00;2.57;;;13.70;99.90;;;;;;5043175;28;20452;-80
2022/11/25 12:38:13;;;;;;;7.50;2.30;;;13.50;99.90;;;;;;5046583;28;20481;-80
2022/11/25 12:40:48;;;;;;;9.30;3.50;;;13.40;99.90;;;;;;5049344;28;20504;-82
2022/11/25 12:43:25;;;;;;;6.87;2.70;;;13.30;99.90;;;;;;5047025;28;20521;-80
2022/11/25 12:46:00;;;;;;;8.97;2.67;;;13.50;99.90;;;;;;5049355;28;20477;-81
2022/11/25 12:48:27;;;;;;;9.60;2.60;;;13.90;99.90;;;;;;5061910;28;20564;-79
2022/11/25 12:51:02;;;;;;;5.83;2.30;;;14.20;99.90;;;;;;5063584;28;20478;-80
2022/11/25 12:53:37;;;;;;;10.50;3.27;;;14.40;99.90;;;;;;5049753;28;20466;-82
2022/11/25 12:56:15;;;;;;;9.50;2.80;;;14.30;99.90;;;;;;5046766;28;20514;-82
2022/11/25 12:58:53;;;;;;;7.10;2.60;;;14.30;99.90;;;;;;5049393;28;20507;-79
2022/11/25 13:01:47;;;;;;;7.57;2.73;;;14.40;99.90;;;;;;5041787;28;20518;-82
2022/11/25 13:04:31;;;;;;;9.50;2.47;;;14.10;99.90;;;;;;5040167;28;20462;-81
2022/11/25 13:07:26;;;;;;;7.90;2.73;;;13.90;99.90;;;;;;5042998;28;20638;-82
2022/11/25 13:10:24;;;;;;;10.73;2.50;;;13.70;99.90;;;;;;5042800;28;20447;-81
2022/11/25 13:13:10;;;;;;;10.20;2.90;;;13.50;99.90;;;;;;5034808;28;20430;-80
2022/11/25 13:15:41;;;;;;;8.23;2.70;;;13.40;99.90;;;;;;5055158;28;20429;-79
2022/11/25 13:18:12;;;;;;;12.80;3.87;;;13.20;99.90;;;;;;5045036;28;20554;-80
2022/11/25 13:20:46;;;;;;;7.77;3.10;;;13.10;99.90;;;;;;5041417;28;21068;-82
2022/11/25 13:23:27;;;;;;;7.60;2.40;;;13.10;99.90;;;;;;5045568;28;20508;-81
2022/11/25 13:26:38;;;;;;;6.30;2.20;;;13.00;99.90;;;;;;5031531;28;20459;-81